createdAt,value
2019-01-28T00:01:12.210Z,2.60
2019-01-28T00:03:41.891Z,2.70
2019-01-28T00:06:11.824Z,2.70
2019-01-28T00:08:41.623Z,2.70
2019-01-28T00:11:11.458Z,2.70
2019-01-28T00:13:41.196Z,2.70
2019-01-28T00:16:10.946Z,2.70
2019-01-28T00:18:40.721Z,2.70
2019-01-28T00:21:10.496Z,2.70
2019-01-28T00:23:40.561Z,2.70
2019-01-28T00:26:10.301Z,2.70
2019-01-28T00:28:40.152Z,2.70
2019-01-28T00:31:09.957Z,2.70
2019-01-28T00:33:39.709Z,2.70
2019-01-28T00:36:09.525Z,2.70
2019-01-28T00:38:39.325Z,2.70
2019-01-28T00:41:09.136Z,2.70
2019-01-28T00:43:38.976Z,2.70
2019-01-28T00:46:09.983Z,2.70
2019-01-28T00:48:39.820Z,2.70
2019-01-28T00:51:09.799Z,2.70
2019-01-28T00:53:39.769Z,2.70
2019-01-28T00:56:09.651Z,2.70
2019-01-28T00:58:39.960Z,2.70
2019-01-28T01:01:10.464Z,2.70
2019-01-28T01:03:40.935Z,2.70
2019-01-28T01:06:11.098Z,2.70
2019-01-28T01:08:40.938Z,2.70
2019-01-28T01:11:10.820Z,2.70
2019-01-28T01:13:40.673Z,2.70
2019-01-28T01:16:10.715Z,2.70
2019-01-28T01:18:40.517Z,2.70
2019-01-28T01:21:10.351Z,2.70
2019-01-28T01:23:40.174Z,2.70
2019-01-28T01:26:10.082Z,2.70
2019-01-28T01:28:39.941Z,2.70
2019-01-28T01:31:09.768Z,2.70
2019-01-28T01:33:39.818Z,2.70
2019-01-28T01:36:09.711Z,2.70
2019-01-28T01:38:40.082Z,2.70
2019-01-28T01:41:09.921Z,2.70
2019-01-28T01:43:40.509Z,2.70
2019-01-28T01:46:10.362Z,2.70
2019-01-28T01:48:40.205Z,2.70
2019-01-28T01:51:10.088Z,2.70
2019-01-28T01:53:39.949Z,2.70
2019-01-28T01:56:09.728Z,2.70
2019-01-28T01:58:39.475Z,2.70
2019-01-28T02:01:09.332Z,2.70
2019-01-28T02:03:39.222Z,2.70
2019-01-28T02:06:09.895Z,2.70
2019-01-28T02:08:39.735Z,2.70
2019-01-28T02:11:10.133Z,2.70
2019-01-28T02:13:40.869Z,2.80
2019-01-28T02:16:12.963Z,2.70
2019-01-28T02:18:42.950Z,2.80
2019-01-28T02:21:18.055Z,2.80
2019-01-28T02:23:48.037Z,2.80
2019-01-28T02:26:18.657Z,2.80
2019-01-28T02:28:50.307Z,2.80
2019-01-28T02:31:20.784Z,2.80
2019-01-28T02:33:50.714Z,2.80
2019-01-28T02:36:20.924Z,2.80
2019-01-28T02:38:50.844Z,2.80
2019-01-28T02:41:20.962Z,2.80
2019-01-28T02:43:51.398Z,2.80
2019-01-28T02:46:24.460Z,2.80
2019-01-28T02:48:59.397Z,2.80
2019-01-28T02:51:31.937Z,2.80
2019-01-28T02:54:02.054Z,2.80
2019-01-28T02:56:36.345Z,2.80
2019-01-28T02:59:07.496Z,2.80
2019-01-28T03:01:38.092Z,2.80
2019-01-28T03:04:14.370Z,2.80
2019-01-28T03:06:45.877Z,2.80
2019-01-28T03:09:18.407Z,2.80
2019-01-28T03:11:49.210Z,2.80
2019-01-28T03:14:24.747Z,2.80
2019-01-28T03:16:56.181Z,2.80
2019-01-28T03:19:26.131Z,2.80
2019-01-28T03:21:56.191Z,2.80
2019-01-28T03:24:26.663Z,2.80
2019-01-28T03:26:56.843Z,2.80
2019-01-28T03:29:30.750Z,2.80
2019-01-28T03:32:05.729Z,2.80
2019-01-28T03:34:36.901Z,2.80
2019-01-28T03:37:06.991Z,2.80
2019-01-28T03:39:37.454Z,2.80
2019-01-28T03:42:07.863Z,2.80
2019-01-28T03:44:37.775Z,2.80
2019-01-28T03:47:07.886Z,2.80
2019-01-28T03:49:37.748Z,2.80
2019-01-28T03:52:09.204Z,2.80
2019-01-28T03:54:39.610Z,2.80
2019-01-28T03:57:09.570Z,2.80
2019-01-28T03:59:39.985Z,2.80
2019-01-28T04:02:10.223Z,2.80
2019-01-28T04:04:40.174Z,2.80
2019-01-28T04:07:10.009Z,2.80
2019-01-28T04:09:40.639Z,2.80
2019-01-28T04:12:11.878Z,2.80
2019-01-28T04:14:42.374Z,2.80
2019-01-28T04:17:12.259Z,2.80
2019-01-28T04:19:43.193Z,2.80
2019-01-28T04:22:13.406Z,2.80
2019-01-28T04:24:43.301Z,2.80
2019-01-28T04:27:13.191Z,2.80
2019-01-28T04:29:45.546Z,2.90
2019-01-28T04:32:15.439Z,2.90
2019-01-28T04:34:45.507Z,2.90
2019-01-28T04:37:15.337Z,2.80
2019-01-28T04:39:47.779Z,2.90
2019-01-28T04:42:20.166Z,2.80
2019-01-28T04:44:51.945Z,2.90
2019-01-28T04:47:23.039Z,2.90
2019-01-28T04:49:58.832Z,2.90
2019-01-28T04:52:29.326Z,2.90
2019-01-28T04:55:40.372Z,2.90
2019-01-28T04:58:10.908Z,2.90
2019-01-28T05:00:45.761Z,2.90
2019-01-28T05:03:20.858Z,2.90
2019-01-28T05:05:56.369Z,2.90
2019-01-28T05:08:26.928Z,2.90
2019-01-28T05:10:58.202Z,2.90
2019-01-28T05:13:29.229Z,2.90
2019-01-28T05:16:04.319Z,2.90
2019-01-28T05:18:35.837Z,2.90
2019-01-28T05:21:06.169Z,2.80
2019-01-28T05:23:36.146Z,2.90
2019-01-28T05:26:07.605Z,2.80
2019-01-28T05:28:38.041Z,2.80
2019-01-28T05:31:08.129Z,2.90
2019-01-28T05:33:38.422Z,2.90
2019-01-28T05:36:08.477Z,2.90
2019-01-28T05:38:39.192Z,2.90
2019-01-28T05:41:09.851Z,2.80
2019-01-28T05:43:40.521Z,2.80
2019-01-28T05:46:11.919Z,2.90
2019-01-28T05:48:49.347Z,2.90
2019-01-28T05:51:22.707Z,2.90
2019-01-28T05:53:52.675Z,2.90
2019-01-28T05:56:23.088Z,2.90
2019-01-28T05:58:53.002Z,2.90
2019-01-28T06:01:22.823Z,2.90
2019-01-28T06:03:53.092Z,2.90
2019-01-28T06:06:23.609Z,2.90
2019-01-28T06:08:53.689Z,2.90
2019-01-28T06:11:23.708Z,2.90
2019-01-28T06:13:53.788Z,2.90
2019-01-28T06:16:23.698Z,2.90
2019-01-28T06:18:54.619Z,2.90
2019-01-28T06:21:24.560Z,2.90
2019-01-28T06:23:54.411Z,3.00
2019-01-28T06:26:24.222Z,3.00
2019-01-28T06:28:54.143Z,3.00
2019-01-28T06:31:24.554Z,3.00
2019-01-28T06:33:54.711Z,3.00
2019-01-28T06:36:25.778Z,3.00
2019-01-28T06:38:55.788Z,3.00
2019-01-28T06:41:25.766Z,3.10
2019-01-28T06:43:56.261Z,3.00
2019-01-28T06:46:27.424Z,3.10
2019-01-28T06:48:57.385Z,3.10
2019-01-28T06:51:27.446Z,3.00
2019-01-28T06:54:02.869Z,3.10
2019-01-28T06:56:35.790Z,3.10
2019-01-28T06:59:08.087Z,3.00
2019-01-28T07:01:38.732Z,3.00
2019-01-28T07:04:08.510Z,3.10
2019-01-28T07:06:38.352Z,3.10
2019-01-28T07:09:09.865Z,3.00
2019-01-28T07:11:39.777Z,3.00
2019-01-28T07:14:09.576Z,3.00
2019-01-28T07:16:39.429Z,3.00
2019-01-28T07:19:10.176Z,3.00
2019-01-28T07:21:40.098Z,3.00
2019-01-28T07:24:09.886Z,3.00
2019-01-28T07:26:40.834Z,3.00
2019-01-28T07:29:12.538Z,3.00
2019-01-28T07:31:42.443Z,3.00
2019-01-28T07:34:14.049Z,2.90
2019-01-28T07:36:44.631Z,2.90
2019-01-28T07:39:16.083Z,2.90
2019-01-28T07:41:48.443Z,3.00
2019-01-28T07:44:23.057Z,3.00
2019-01-28T07:46:54.480Z,2.90
2019-01-28T07:49:28.772Z,3.00
2019-01-28T07:51:58.935Z,2.90
2019-01-28T07:54:30.177Z,2.90
2019-01-28T07:57:01.322Z,2.90
2019-01-28T07:59:33.209Z,2.90
2019-01-28T08:02:59.490Z,2.90
2019-01-28T08:13:11.343Z,2.90
2019-01-28T08:16:20.025Z,2.90
2019-01-28T08:19:56.046Z,2.90
2019-01-28T08:23:15.714Z,2.90
2019-01-28T08:26:29.400Z,2.90
2019-01-28T08:30:02.691Z,2.90
2019-01-28T08:45:29.958Z,2.90
2019-01-28T09:19:02.176Z,3.10
2019-01-28T12:33:05.775Z,4.20
2019-01-28T12:43:26.051Z,4.20
2019-01-28T12:55:31.522Z,4.20
2019-01-28T12:58:06.932Z,4.30
2019-01-28T13:01:06.816Z,4.30
2019-01-28T13:03:52.348Z,4.20
2019-01-28T13:06:22.647Z,4.20
2019-01-28T13:09:01.360Z,4.20
2019-01-28T13:11:41.722Z,4.20
2019-01-28T13:14:13.252Z,4.20
2019-01-28T13:16:53.757Z,4.30
2019-01-28T13:19:34.434Z,4.30
2019-01-28T13:22:18.591Z,4.30
2019-01-28T13:24:53.263Z,4.20
2019-01-28T13:27:25.135Z,4.20
2019-01-28T13:29:54.633Z,4.20
2019-01-28T13:32:24.308Z,4.20
2019-01-28T13:34:54.007Z,4.20
2019-01-28T13:37:23.710Z,4.20
2019-01-28T13:39:53.408Z,4.20
2019-01-28T13:42:23.202Z,4.20
2019-01-28T13:44:53.097Z,4.20
2019-01-28T13:47:22.950Z,4.20
2019-01-28T13:49:52.527Z,4.20
2019-01-28T13:52:22.223Z,4.20
2019-01-28T13:54:51.969Z,4.10
2019-01-28T13:57:21.602Z,4.10
2019-01-28T13:59:51.281Z,4.10
2019-01-28T14:02:21.195Z,4.10
2019-01-28T14:05:00.508Z,4.00
2019-01-28T14:07:31.272Z,4.10
2019-01-28T14:10:07.929Z,4.00
2019-01-28T14:12:40.782Z,4.00
2019-01-28T14:15:16.495Z,4.00
2019-01-28T14:17:47.430Z,4.00
2019-01-28T14:20:22.944Z,3.90
2019-01-28T14:22:57.988Z,3.90
2019-01-28T14:25:28.966Z,3.90
2019-01-28T14:27:59.181Z,3.90
2019-01-28T14:30:37.663Z,3.90
2019-01-28T14:33:07.852Z,3.80
2019-01-28T14:35:38.807Z,3.80
2019-01-28T14:38:14.998Z,3.80
2019-01-28T14:40:45.895Z,3.70
2019-01-28T14:43:17.030Z,3.80
2019-01-28T14:45:46.540Z,3.70
2019-01-28T14:48:16.448Z,3.70
2019-01-28T14:50:46.666Z,3.70
2019-01-28T14:53:16.262Z,3.60
2019-01-28T14:55:49.942Z,3.60
2019-01-28T14:58:19.934Z,3.60
2019-01-28T15:00:50.011Z,3.60
2019-01-28T15:03:20.591Z,3.60
2019-01-28T15:05:59.685Z,3.60
2019-01-28T15:08:34.842Z,3.50
2019-01-28T15:11:10.132Z,3.50
2019-01-28T15:13:44.189Z,3.50
2019-01-28T15:16:14.997Z,3.50
2019-01-28T15:19:12.178Z,3.50
2019-01-28T15:21:48.413Z,3.40
2019-01-28T15:24:25.874Z,3.40
2019-01-28T15:27:18.528Z,3.40
2019-01-28T15:29:54.714Z,3.40
2019-01-28T15:32:56.622Z,3.30
2019-01-28T15:35:31.437Z,3.30
2019-01-28T15:38:06.202Z,3.30
2019-01-28T15:41:07.710Z,3.20
2019-01-28T15:43:53.090Z,3.20
2019-01-28T15:46:28.347Z,3.20
2019-01-28T15:49:14.251Z,3.20
2019-01-28T15:51:48.895Z,3.10
2019-01-28T15:54:28.710Z,3.10
2019-01-28T15:56:59.800Z,3.10
2019-01-28T15:59:30.610Z,3.10
2019-01-28T16:02:04.267Z,3.10
2019-01-28T16:04:34.602Z,3.00
2019-01-28T16:07:04.976Z,3.00
2019-01-28T16:09:43.389Z,3.00
2019-01-28T16:12:14.718Z,3.00
2019-01-28T16:14:46.022Z,3.00
2019-01-28T16:17:18.734Z,3.00
2019-01-28T16:19:51.073Z,3.00
2019-01-28T16:22:21.287Z,3.00
2019-01-28T16:24:52.676Z,3.00
2019-01-28T16:27:24.204Z,3.00
2019-01-28T16:29:55.028Z,2.90
2019-01-28T16:32:27.075Z,2.90
2019-01-28T16:34:57.422Z,2.90
2019-01-28T16:37:28.616Z,2.90
2019-01-28T16:39:59.662Z,2.90
2019-01-28T16:42:33.466Z,2.90
2019-01-28T16:45:04.070Z,2.90
2019-01-28T16:47:36.409Z,2.90
2019-01-28T16:50:08.068Z,2.90
2019-01-28T16:52:40.228Z,2.80
2019-01-28T16:55:13.569Z,2.80
2019-01-28T16:57:46.662Z,2.80
2019-01-28T17:00:33.942Z,2.80
2019-01-28T17:03:15.092Z,2.80
2019-01-28T17:05:49.458Z,2.80
2019-01-28T17:08:23.206Z,2.70
2019-01-28T17:10:53.118Z,2.70
2019-01-28T17:13:23.157Z,2.70
2019-01-28T17:15:54.180Z,2.70
2019-01-28T17:18:30.566Z,2.70
2019-01-28T17:21:00.899Z,2.70
2019-01-28T17:23:31.379Z,2.70
2019-01-28T17:26:01.793Z,2.70
2019-01-28T17:28:33.043Z,2.70
2019-01-28T17:31:05.116Z,2.70
2019-01-28T17:33:41.011Z,2.60
2019-01-28T17:36:11.596Z,2.60
2019-01-28T17:38:42.631Z,2.60
2019-01-28T17:41:20.065Z,2.60
2019-01-28T17:43:58.030Z,2.60
2019-01-28T17:46:33.165Z,2.60
2019-01-28T17:49:22.874Z,2.60
2019-01-28T17:51:53.560Z,2.60
2019-01-28T17:54:24.042Z,2.60
2019-01-28T17:56:56.915Z,2.60
2019-01-28T17:59:30.002Z,2.60
2019-01-28T18:02:03.971Z,2.60
2019-01-28T18:04:38.647Z,2.60
2019-01-28T18:07:25.355Z,2.60
2019-01-28T18:10:00.365Z,2.60
2019-01-28T18:12:32.678Z,2.60
2019-01-28T18:15:11.281Z,2.60
2019-01-28T18:17:54.207Z,2.60
2019-01-28T18:20:24.174Z,2.60
2019-01-28T18:22:54.165Z,2.60
2019-01-28T18:25:33.546Z,2.60
2019-01-28T18:28:04.304Z,2.60
2019-01-28T18:33:44.375Z,2.70
2019-01-28T18:36:15.183Z,2.70
2019-01-28T18:38:46.524Z,2.70
2019-01-28T18:41:16.971Z,2.70
2019-01-28T18:43:47.401Z,2.70
2019-01-28T18:46:20.266Z,2.70
2019-01-28T18:48:50.642Z,2.80
2019-01-28T18:51:30.018Z,2.80
2019-01-28T18:54:08.308Z,2.80
2019-01-28T18:56:53.344Z,2.80
2019-01-28T18:59:24.693Z,2.80
2019-01-28T19:02:06.616Z,2.80
2019-01-28T19:04:39.875Z,2.80
2019-01-28T19:07:37.021Z,2.90
2019-01-28T19:10:32.569Z,2.90
2019-01-28T19:17:06.405Z,2.80
2019-01-28T19:20:44.599Z,2.70
2019-01-28T19:23:19.974Z,2.70
2019-01-28T19:26:42.510Z,2.60
2019-01-28T19:29:31.654Z,2.50
2019-01-28T19:32:29.106Z,2.40
2019-01-28T19:35:44.999Z,2.40
2019-01-28T19:38:14.887Z,2.40
2019-01-28T19:40:53.011Z,2.30
2019-01-28T19:43:41.960Z,2.20
2019-01-28T19:46:59.427Z,2.20
2019-01-28T19:50:04.946Z,2.20
2019-01-28T19:53:00.588Z,2.10
2019-01-28T19:55:56.405Z,2.10
2019-01-28T19:58:41.101Z,2.10
2019-01-28T20:01:43.691Z,2.00
2019-01-28T20:04:23.300Z,2.00
2019-01-28T20:11:00.102Z,2.00
2019-01-28T20:14:15.748Z,1.90
2019-01-28T20:17:52.374Z,1.90
2019-01-28T20:23:33.477Z,1.90
2019-01-28T20:26:21.809Z,1.80
2019-01-28T20:28:57.099Z,1.80
2019-01-28T20:31:49.220Z,1.80
2019-01-28T20:34:27.983Z,1.80
2019-01-28T20:37:08.929Z,1.80
2019-01-28T20:39:52.612Z,1.80
2019-01-28T20:42:29.801Z,1.80
2019-01-28T20:45:06.525Z,1.80
2019-01-28T20:47:37.891Z,1.80
2019-01-28T20:50:13.538Z,1.80
2019-01-28T20:52:47.964Z,1.80
2019-01-28T20:55:23.665Z,1.80
2019-01-28T20:58:29.320Z,1.80
2019-01-28T21:01:00.850Z,1.80
2019-01-28T21:03:32.387Z,1.80
2019-01-28T21:06:07.984Z,1.80
2019-01-28T21:08:51.014Z,1.80
2019-01-28T21:11:50.456Z,1.80
2019-01-28T21:14:26.545Z,1.80
2019-01-28T21:17:13.694Z,1.80
2019-01-28T21:20:05.589Z,1.70
2019-01-28T21:22:43.136Z,1.70
2019-01-28T21:25:26.536Z,1.70
2019-01-28T21:28:08.907Z,1.70
2019-01-28T21:31:00.723Z,1.70
2019-01-28T21:33:43.794Z,1.70
2019-01-28T21:36:35.560Z,1.60
2019-01-28T21:39:24.252Z,1.60
2019-01-28T21:45:11.417Z,1.60
2019-01-28T21:48:07.081Z,1.60
2019-01-28T21:50:46.316Z,1.60
2019-01-28T21:53:33.593Z,1.60
2019-01-28T22:02:53.582Z,1.50
2019-01-28T22:05:51.332Z,1.50
2019-01-28T22:08:55.322Z,1.50
2019-01-28T22:11:39.199Z,1.50
2019-01-28T22:14:39.698Z,1.50
2019-01-28T22:17:11.041Z,1.40
2019-01-28T22:27:11.519Z,1.40
2019-01-28T22:41:59.150Z,1.30
2019-01-28T22:48:25.663Z,1.30
2019-01-28T22:50:59.544Z,1.30
2019-01-28T22:53:48.404Z,1.30
2019-01-28T22:56:49.283Z,1.30
2019-01-28T23:03:23.226Z,1.30
2019-01-28T23:06:27.068Z,1.30
2019-01-28T23:09:08.526Z,1.30
2019-01-28T23:15:07.083Z,1.20
2019-01-28T23:18:12.664Z,1.20
2019-01-28T23:20:59.812Z,1.20
2019-01-28T23:24:31.225Z,1.20
2019-01-28T23:27:47.052Z,1.20
2019-01-28T23:30:51.858Z,1.20
2019-01-28T23:37:26.961Z,1.20
2019-01-28T23:47:04.133Z,1.20
2019-01-28T23:50:43.449Z,1.10
